Time;durP1;ratioP1;P1;durP2;ratioP2;P2;SDS_P1;SDS_P2;PMS_P1;PMS_P2;Temp;Humidity;BMP_temperature;BMP_pressure;BME280_temperature;BME280_humidity;BME280_pressure;Samples;Min_cycle;Max_cycle;Signal;HPM_P1;HPM_P2
2021/10/31 00:02:14;;;;;;;36.60;20.65;;;9.40;99.90;;;;;;5051860;28;20494;-76
2021/10/31 00:04:40;;;;;;;36.40;21.83;;;9.40;99.90;;;;;;5052194;28;20086;-76
2021/10/31 00:07:06;;;;;;;33.45;20.48;;;9.40;99.90;;;;;;5051590;28;20076;-75
2021/10/31 00:09:31;;;;;;;37.92;22.92;;;9.40;99.90;;;;;;5051429;28;20062;-76
2021/10/31 00:11:59;;;;;;;36.50;21.45;;;9.40;99.90;;;;;;5051547;28;20104;-76
2021/10/31 00:14:24;;;;;;;32.22;19.38;;;9.30;99.90;;;;;;5051446;28;20028;-75
2021/10/31 00:16:51;;;;;;;37.72;21.83;;;9.40;99.90;;;;;;5051572;28;20029;-76
2021/10/31 00:19:16;;;;;;;41.15;23.00;;;9.40;99.90;;;;;;5051827;28;20025;-76
2021/10/31 00:21:42;;;;;;;59.22;31.13;;;9.50;99.90;;;;;;5051494;28;20139;-76
2021/10/31 00:24:08;;;;;;;44.28;27.35;;;9.60;99.90;;;;;;5053551;28;20028;-76
2021/10/31 00:26:34;;;;;;;46.78;27.08;;;9.50;99.90;;;;;;5055487;28;20497;-76
2021/10/31 00:28:59;;;;;;;47.25;28.70;;;9.40;99.90;;;;;;5055672;28;20029;-76
2021/10/31 00:31:25;;;;;;;44.97;27.63;;;9.40;99.90;;;;;;5055513;28;20561;-76
2021/10/31 00:33:51;;;;;;;48.28;31.13;;;9.40;99.90;;;;;;5055400;28;20074;-76
2021/10/31 00:36:17;;;;;;;46.22;26.20;;;9.40;99.90;;;;;;5055578;28;20029;-76
2021/10/31 00:38:43;;;;;;;40.15;24.33;;;9.30;99.90;;;;;;5055214;28;20029;-75
2021/10/31 00:41:09;;;;;;;34.95;20.17;;;9.40;99.90;;;;;;5055210;28;20013;-76
2021/10/31 00:43:34;;;;;;;34.50;19.90;;;9.40;99.90;;;;;;5055162;28;20037;-76
2021/10/31 00:46:00;;;;;;;37.33;20.00;;;9.30;99.90;;;;;;5055105;28;20522;-77
2021/10/31 00:48:26;;;;;;;31.15;17.98;;;9.20;99.90;;;;;;5055550;28;20021;-75
2021/10/31 00:50:52;;;;;;;30.73;16.30;;;9.20;99.90;;;;;;5055011;28;20123;-75
2021/10/31 00:53:19;;;;;;;31.65;17.08;;;9.20;99.90;;;;;;5055144;28;20029;-76
2021/10/31 00:55:45;;;;;;;30.85;17.55;;;9.10;99.90;;;;;;5054819;28;20029;-76
2021/10/31 00:58:12;;;;;;;31.15;17.90;;;9.00;99.90;;;;;;5055089;28;20027;-76
2021/10/31 01:00:38;;;;;;;31.13;19.10;;;9.10;99.90;;;;;;5055108;28;20021;-76
2021/10/31 01:03:04;;;;;;;33.58;19.75;;;9.20;99.90;;;;;;5054975;28;20025;-76
2021/10/31 01:05:34;;;;;;;34.65;20.95;;;9.30;99.90;;;;;;5054837;28;20100;-76
2021/10/31 01:08:49;;;;;;;33.42;21.55;;;9.30;99.90;;;;;;5054644;28;20033;-75
2021/10/31 01:11:29;;;;;;;47.97;27.20;;;9.30;99.90;;;;;;5054631;28;20056;-76
2021/10/31 01:14:13;;;;;;;50.75;28.60;;;9.50;99.90;;;;;;5054546;28;20032;-75
2021/10/31 01:16:57;;;;;;;44.22;26.67;;;9.60;99.90;;;;;;5054892;28;20580;-76
2021/10/31 01:19:49;;;;;;;45.08;26.38;;;9.60;99.90;;;;;;5054683;28;20021;-76
2021/10/31 01:22:36;;;;;;;46.80;26.30;;;9.40;99.90;;;;;;5038773;28;20033;-76
2021/10/31 01:25:07;;;;;;;37.03;22.75;;;9.50;99.90;;;;;;5054288;28;20108;-76
2021/10/31 01:28:11;;;;;;;43.47;26.25;;;9.30;99.90;;;;;;5054733;28;20079;-76
2021/10/31 01:31:17;;;;;;;50.70;27.98;;;9.40;99.90;;;;;;5038809;28;20120;-76
2021/10/31 01:34:13;;;;;;;47.60;27.60;;;9.50;99.90;;;;;;5012058;28;20037;-76
2021/10/31 01:36:51;;;;;;;50.22;31.23;;;9.50;99.90;;;;;;5054067;28;20565;-76
2021/10/31 01:39:19;;;;;;;48.58;29.15;;;9.60;99.90;;;;;;5054298;28;20021;-76
2021/10/31 01:42:16;;;;;;;45.30;28.40;;;9.60;99.90;;;;;;5054085;28;20018;-75
2021/10/31 01:45:04;;;;;;;44.05;25.83;;;9.50;99.90;;;;;;5053912;28;20032;-76
2021/10/31 01:48:18;;;;;;;37.85;22.27;;;9.40;99.90;;;;;;5054330;28;20025;-76
2021/10/31 01:50:47;;;;;;;40.28;23.25;;;9.30;99.90;;;;;;5053777;28;20037;-76
2021/10/31 01:53:25;;;;;;;43.60;26.52;;;9.30;99.90;;;;;;5053901;28;20029;-76
2021/10/31 01:55:56;;;;;;;41.03;23.50;;;9.30;99.90;;;;;;5053887;28;20116;-75
2021/10/31 01:58:23;;;;;;;42.25;25.25;;;9.30;99.90;;;;;;5054010;28;20071;-76
2021/10/31 02:00:51;;;;;;;38.97;24.15;;;9.30;99.90;;;;;;5053661;28;20100;-76
2021/10/31 02:03:19;;;;;;;46.67;27.35;;;9.20;99.90;;;;;;5053784;28;20021;-76
2021/10/31 02:05:47;;;;;;;46.35;25.20;;;9.10;99.90;;;;;;5053495;28;20567;-76
2021/10/31 02:08:15;;;;;;;43.83;25.17;;;9.20;99.90;;;;;;5053501;28;20040;-76
2021/10/31 02:10:43;;;;;;;44.80;25.30;;;9.30;99.90;;;;;;5053406;28;20080;-76
2021/10/31 02:13:11;;;;;;;51.45;30.33;;;9.30;99.90;;;;;;5053761;28;20021;-76
2021/10/31 02:15:38;;;;;;;53.88;30.77;;;9.20;99.90;;;;;;5053528;28;20539;-76
2021/10/31 02:18:05;;;;;;;49.80;28.10;;;9.20;99.90;;;;;;5053502;28;20028;-75
2021/10/31 02:20:32;;;;;;;54.40;30.67;;;9.20;99.90;;;;;;5053499;28;20498;-76
2021/10/31 02:23:01;;;;;;;42.60;24.38;;;9.20;99.90;;;;;;5053355;28;20502;-76
2021/10/31 02:25:27;;;;;;;38.25;22.30;;;9.20;99.90;;;;;;5053378;28;20028;-76
2021/10/31 02:27:53;;;;;;;45.17;24.33;;;9.00;99.90;;;;;;5053280;28;20100;-76
2021/10/31 02:30:19;;;;;;;41.58;24.50;;;9.00;99.90;;;;;;5053355;28;20469;-76
2021/10/31 02:32:46;;;;;;;42.45;24.98;;;9.00;99.90;;;;;;5053317;28;20020;-75
2021/10/31 02:35:13;;;;;;;45.85;26.23;;;9.00;99.90;;;;;;5053327;28;20025;-76
2021/10/31 02:37:40;;;;;;;47.45;25.98;;;9.10;99.90;;;;;;5053206;28;20021;-76
2021/10/31 02:40:09;;;;;;;41.90;25.63;;;9.10;99.90;;;;;;5053230;28;20029;-75
2021/10/31 02:42:34;;;;;;;40.60;25.05;;;9.00;99.90;;;;;;5053299;28;20024;-76
2021/10/31 02:45:01;;;;;;;45.95;25.38;;;9.00;99.90;;;;;;5052727;28;20055;-76
2021/10/31 02:47:52;;;;;;;45.90;26.63;;;9.00;99.90;;;;;;5052316;28;20029;-76
2021/10/31 02:50:24;;;;;;;45.50;26.42;;;9.10;99.90;;;;;;5052669;28;20080;-76
2021/10/31 02:53:14;;;;;;;43.65;25.35;;;9.10;99.90;;;;;;5052952;28;20021;-76
2021/10/31 02:55:58;;;;;;;47.42;28.33;;;9.00;99.90;;;;;;5052760;28;20378;-75
2021/10/31 02:59:05;;;;;;;49.28;30.70;;;9.00;99.90;;;;;;5052974;28;20082;-75
2021/10/31 03:01:31;;;;;;;48.70;28.30;;;8.90;99.90;;;;;;5041406;28;20379;-77
2021/10/31 03:03:57;;;;;;;46.63;26.50;;;8.90;99.90;;;;;;5033122;28;20026;-77
2021/10/31 03:06:24;;;;;;;52.35;28.30;;;8.90;99.90;;;;;;5033049;28;20096;-77
2021/10/31 03:08:50;;;;;;;51.00;27.70;;;8.90;99.90;;;;;;5032868;28;20025;-76
2021/10/31 03:11:16;;;;;;;54.50;30.52;;;8.80;99.90;;;;;;5032034;28;20060;-77
2021/10/31 03:13:42;;;;;;;50.35;28.25;;;8.80;99.90;;;;;;5031863;28;20028;-77
2021/10/31 03:16:08;;;;;;;47.33;27.65;;;8.80;99.90;;;;;;5031890;28;20017;-78
2021/10/31 03:18:35;;;;;;;52.78;27.92;;;8.80;99.90;;;;;;5031852;28;20026;-77
2021/10/31 03:21:01;;;;;;;45.97;26.35;;;8.80;99.90;;;;;;5032300;28;20037;-77
2021/10/31 03:23:27;;;;;;;48.28;27.25;;;8.80;99.90;;;;;;5031986;28;20030;-79
2021/10/31 03:25:53;;;;;;;51.10;27.60;;;8.90;99.90;;;;;;5031808;28;20030;-76
2021/10/31 03:28:19;;;;;;;50.83;29.33;;;8.90;99.90;;;;;;5031738;28;20056;-77
2021/10/31 03:30:45;;;;;;;47.03;27.52;;;8.90;99.90;;;;;;5031513;28;20117;-76
2021/10/31 03:33:12;;;;;;;47.08;26.83;;;8.80;99.90;;;;;;5031732;28;20033;-77
2021/10/31 03:35:38;;;;;;;48.95;27.48;;;8.80;99.90;;;;;;5031900;28;20036;-77
2021/10/31 03:38:04;;;;;;;42.75;25.75;;;8.80;99.90;;;;;;5031612;28;20033;-77
2021/10/31 03:40:30;;;;;;;44.35;25.30;;;8.80;99.90;;;;;;5031739;28;20029;-77
2021/10/31 03:42:56;;;;;;;49.67;28.83;;;8.80;99.90;;;;;;5031595;28;20021;-77
2021/10/31 03:45:22;;;;;;;44.90;24.98;;;8.70;99.90;;;;;;5031397;28;20032;-77
2021/10/31 03:47:48;;;;;;;46.45;26.88;;;8.70;99.90;;;;;;5031318;28;20060;-76
2021/10/31 03:50:21;;;;;;;44.35;27.10;;;8.80;99.90;;;;;;5031659;28;20119;-77
2021/10/31 03:52:47;;;;;;;46.25;26.20;;;8.80;99.90;;;;;;5031509;28;20380;-77
2021/10/31 03:55:14;;;;;;;48.20;25.88;;;8.90;99.90;;;;;;5031597;28;20383;-77
2021/10/31 03:57:40;;;;;;;42.30;25.27;;;8.80;99.90;;;;;;5030538;28;20028;-77
2021/10/31 04:00:09;;;;;;;46.20;27.88;;;8.70;99.90;;;;;;5030990;28;20112;-77
2021/10/31 04:02:36;;;;;;;46.70;27.27;;;8.70;99.90;;;;;;5037792;28;20033;-78
2021/10/31 04:05:02;;;;;;;45.70;25.35;;;8.80;99.90;;;;;;5044264;28;20033;-77
2021/10/31 04:07:28;;;;;;;44.30;26.90;;;8.80;99.90;;;;;;5045231;28;20033;-81
2021/10/31 04:09:54;;;;;;;48.22;27.60;;;8.70;99.90;;;;;;4987712;28;1631951;-78
2021/10/31 04:12:20;;;;;;;52.00;26.73;;;8.80;99.90;;;;;;5046053;28;20036;-79
2021/10/31 04:14:45;;;;;;;46.38;26.63;;;8.70;99.90;;;;;;5045919;28;20131;-77
2021/10/31 04:17:11;;;;;;;42.90;23.77;;;8.70;99.90;;;;;;5045888;28;20122;-78
2021/10/31 04:19:37;;;;;;;43.03;25.90;;;8.70;99.90;;;;;;5045829;28;20017;-78
2021/10/31 04:22:03;;;;;;;42.22;25.65;;;8.70;99.90;;;;;;5046749;28;20061;-78
2021/10/31 04:24:28;;;;;;;45.63;26.92;;;8.70;99.90;;;;;;5047883;28;20387;-78
2021/10/31 04:26:54;;;;;;;45.05;24.00;;;8.70;99.90;;;;;;5047877;28;20079;-77
2021/10/31 04:29:20;;;;;;;43.92;26.17;;;8.60;99.90;;;;;;5047906;28;20705;-78
2021/10/31 04:31:45;;;;;;;41.55;25.30;;;8.60;99.90;;;;;;5048036;28;20032;-76
2021/10/31 04:34:11;;;;;;;42.33;25.02;;;8.60;99.90;;;;;;5048054;28;20471;-78
2021/10/31 04:36:37;;;;;;;42.15;24.60;;;8.60;99.90;;;;;;5048241;28;20021;-78
2021/10/31 04:39:06;;;;;;;46.28;23.48;;;8.60;99.90;;;;;;5049057;28;20036;-78
2021/10/31 04:41:31;;;;;;;40.70;23.40;;;8.60;99.90;;;;;;5048975;28;20098;-78
2021/10/31 04:43:57;;;;;;;41.25;25.30;;;8.60;99.90;;;;;;5049395;28;20033;-78
2021/10/31 04:46:23;;;;;;;41.92;23.00;;;8.60;99.90;;;;;;5049011;28;20036;-78
2021/10/31 04:48:48;;;;;;;44.67;25.17;;;8.50;99.90;;;;;;5049993;28;20576;-78
2021/10/31 04:51:14;;;;;;;37.40;22.05;;;8.60;99.90;;;;;;5050104;28;20041;-78
2021/10/31 04:53:40;;;;;;;36.67;23.50;;;8.50;99.90;;;;;;5049842;28;20560;-78
2021/10/31 04:56:06;;;;;;;41.35;24.80;;;8.60;99.90;;;;;;5044292;28;20028;-76
2021/10/31 04:58:32;;;;;;;41.90;23.35;;;8.60;99.90;;;;;;5044107;28;20028;-78
2021/10/31 05:00:58;;;;;;;38.47;23.00;;;8.60;99.90;;;;;;5044229;28;20056;-78
2021/10/31 05:03:24;;;;;;;37.85;22.38;;;8.60;99.90;;;;;;5045236;28;20021;-78
2021/10/31 05:05:50;;;;;;;39.42;23.05;;;8.60;99.90;;;;;;5045667;28;20083;-78
2021/10/31 05:08:15;;;;;;;41.53;24.02;;;8.60;99.90;;;;;;5044250;28;20044;-78
2021/10/31 05:10:41;;;;;;;38.75;21.05;;;8.50;99.90;;;;;;5047736;28;20091;-78
2021/10/31 05:13:07;;;;;;;34.45;20.20;;;8.40;99.90;;;;;;5048704;28;20514;-79
2021/10/31 05:15:33;;;;;;;35.42;20.48;;;8.40;99.90;;;;;;5030698;28;20033;-77
2021/10/31 05:17:58;;;;;;;36.47;20.02;;;8.50;99.90;;;;;;5048737;28;20033;-78
2021/10/31 05:20:24;;;;;;;33.15;19.15;;;8.40;99.90;;;;;;5047460;28;20044;-77
2021/10/31 05:22:50;;;;;;;33.35;19.23;;;8.50;99.90;;;;;;5047583;28;20048;-78
2021/10/31 05:25:16;;;;;;;31.88;18.90;;;8.50;99.90;;;;;;5048062;28;20078;-78
2021/10/31 05:27:42;;;;;;;31.70;17.73;;;8.50;99.90;;;;;;5048702;28;20487;-79
2021/10/31 05:30:10;;;;;;;36.63;19.80;;;8.40;99.90;;;;;;5048748;28;20520;-78
2021/10/31 05:32:38;;;;;;;32.65;19.00;;;8.50;99.90;;;;;;5048738;28;20032;-80
2021/10/31 05:35:05;;;;;;;29.48;16.65;;;8.50;99.90;;;;;;5048320;28;20028;-77
2021/10/31 05:37:35;;;;;;;31.60;18.15;;;8.60;99.90;;;;;;5048654;28;20029;-78
2021/10/31 05:40:04;;;;;;;31.42;18.75;;;8.60;99.90;;;;;;5048621;28;20029;-77
2021/10/31 05:42:30;;;;;;;29.48;16.95;;;8.60;99.90;;;;;;5047944;28;20984;-78
2021/10/31 05:44:55;;;;;;;32.08;17.65;;;8.50;99.90;;;;;;5047919;28;20033;-77
2021/10/31 05:47:22;;;;;;;32.75;18.30;;;8.50;99.90;;;;;;5048043;28;20029;-78
2021/10/31 05:49:48;;;;;;;34.55;19.15;;;8.50;99.90;;;;;;5047711;28;20060;-78
2021/10/31 05:52:13;;;;;;;29.60;18.48;;;8.50;99.90;;;;;;5048049;28;20025;-77
2021/10/31 05:54:39;;;;;;;32.60;18.33;;;8.50;99.90;;;;;;5047798;28;20028;-79
2021/10/31 05:57:05;;;;;;;33.45;17.27;;;8.20;99.90;;;;;;5047996;28;20033;-78
2021/10/31 05:59:30;;;;;;;40.35;20.13;;;8.30;99.90;;;;;;5047748;28;20025;-77
2021/10/31 06:01:56;;;;;;;34.05;19.75;;;8.30;99.90;;;;;;5047828;28;20104;-77
2021/10/31 06:04:25;;;;;;;45.45;21.27;;;8.20;99.90;;;;;;5047886;28;20110;-78
2021/10/31 06:06:50;;;;;;;35.90;19.35;;;8.10;99.90;;;;;;5047687;28;20029;-78
2021/10/31 06:09:16;;;;;;;28.70;17.98;;;8.00;99.90;;;;;;5047885;28;20027;-80
2021/10/31 06:11:42;;;;;;;31.23;17.70;;;8.00;99.90;;;;;;5047547;28;20056;-78
2021/10/31 06:14:08;;;;;;;28.38;17.50;;;8.00;99.90;;;;;;5047462;28;20032;-77
2021/10/31 06:16:34;;;;;;;27.95;17.13;;;7.90;99.90;;;;;;5047368;28;20033;-78
2021/10/31 06:18:59;;;;;;;33.95;16.75;;;7.90;99.90;;;;;;5047547;28;20036;-79
2021/10/31 06:21:25;;;;;;;35.13;19.65;;;7.90;99.90;;;;;;5046444;28;20021;-78
2021/10/31 06:23:51;;;;;;;33.53;18.48;;;8.10;99.90;;;;;;5047431;28;20024;-81
2021/10/31 06:26:16;;;;;;;34.47;20.48;;;8.20;99.90;;;;;;5047403;28;20375;-78
2021/10/31 06:28:42;;;;;;;31.35;19.08;;;8.30;99.90;;;;;;5046102;28;20076;-76
2021/10/31 06:31:08;;;;;;;35.47;20.25;;;8.40;99.90;;;;;;5047189;28;20112;-79
2021/10/31 06:33:33;;;;;;;37.47;21.60;;;8.40;99.90;;;;;;5047094;28;20099;-77
2021/10/31 06:35:59;;;;;;;28.35;17.10;;;8.60;99.90;;;;;;5047213;28;20057;-78
2021/10/31 06:38:25;;;;;;;27.65;18.90;;;8.60;99.90;;;;;;5047357;28;20112;-79
2021/10/31 06:40:50;;;;;;;30.83;18.40;;;8.60;99.90;;;;;;5045713;28;20021;-80
2021/10/31 06:43:16;;;;;;;30.20;16.88;;;8.60;99.90;;;;;;5047112;28;20021;-78
2021/10/31 06:45:42;;;;;;;29.48;17.65;;;8.50;99.90;;;;;;5047029;28;20036;-76
2021/10/31 06:48:08;;;;;;;27.48;16.58;;;8.50;99.90;;;;;;5046915;28;20028;-78
2021/10/31 06:50:33;;;;;;;31.50;18.02;;;8.60;99.90;;;;;;5046752;28;20039;-78
2021/10/31 06:52:59;;;;;;;30.10;16.98;;;8.70;99.90;;;;;;5046814;28;20025;-78
2021/10/31 06:55:25;;;;;;;31.95;16.85;;;8.70;99.90;;;;;;5046849;28;20044;-78
2021/10/31 06:57:51;;;;;;;31.70;18.42;;;8.70;99.90;;;;;;5046894;28;20025;-79
2021/10/31 07:00:17;;;;;;;32.95;18.85;;;8.70;99.90;;;;;;5046892;28;20079;-78
2021/10/31 07:02:43;;;;;;;30.13;17.23;;;8.60;99.90;;;;;;5046424;28;20044;-78
2021/10/31 07:05:09;;;;;;;31.27;18.88;;;8.70;99.90;;;;;;5046622;28;20637;-79
2021/10/31 07:07:35;;;;;;;28.73;17.30;;;8.70;99.90;;;;;;5046787;28;20505;-79
2021/10/31 07:10:00;;;;;;;29.85;17.67;;;8.80;99.90;;;;;;5046324;28;20060;-80
2021/10/31 07:12:26;;;;;;;26.33;16.67;;;8.90;99.90;;;;;;5046751;28;20525;-78
2021/10/31 07:14:52;;;;;;;30.05;18.38;;;8.90;99.90;;;;;;5046298;28;20652;-78
2021/10/31 07:17:17;;;;;;;29.33;17.38;;;8.90;99.90;;;;;;5046763;28;20033;-78
2021/10/31 07:19:43;;;;;;;35.90;23.45;;;8.90;99.90;;;;;;5046710;28;20056;-77
2021/10/31 07:22:09;;;;;;;36.38;23.10;;;9.00;99.90;;;;;;5046116;28;20021;-80
2021/10/31 07:24:35;;;;;;;30.65;18.25;;;9.00;99.90;;;;;;5046455;28;20036;-78
2021/10/31 07:27:00;;;;;;;25.00;15.20;;;9.00;99.90;;;;;;5046096;28;20028;-78
2021/10/31 07:29:26;;;;;;;27.60;16.85;;;9.10;99.90;;;;;;5045930;28;20526;-78
2021/10/31 07:31:52;;;;;;;29.80;18.95;;;9.10;99.90;;;;;;5045936;28;20029;-80
2021/10/31 07:34:18;;;;;;;30.85;18.42;;;9.20;99.90;;;;;;5046702;28;20244;-78
2021/10/31 07:36:44;;;;;;;25.30;16.02;;;9.20;99.90;;;;;;5046346;28;20618;-78
2021/10/31 07:39:10;;;;;;;27.48;15.07;;;9.10;99.90;;;;;;5046326;28;20743;-78
2021/10/31 07:41:37;;;;;;;20.27;13.73;;;9.10;99.90;;;;;;5046287;28;20063;-82
2021/10/31 07:44:03;;;;;;;27.33;15.15;;;9.20;99.90;;;;;;5046282;28;20025;-78
2021/10/31 07:46:29;;;;;;;28.25;17.30;;;9.20;99.90;;;;;;5046662;28;20032;-77
2021/10/31 07:48:55;;;;;;;24.15;15.63;;;9.40;99.90;;;;;;5046300;28;20093;-78
2021/10/31 07:51:20;;;;;;;23.60;15.00;;;9.30;99.90;;;;;;5028538;28;20423;-77
2021/10/31 07:53:46;;;;;;;26.63;15.25;;;9.40;99.90;;;;;;5046921;28;20032;-82
2021/10/31 07:56:15;;;;;;;26.50;16.52;;;9.50;99.90;;;;;;5047624;28;20097;-78
2021/10/31 07:58:43;;;;;;;27.42;16.50;;;9.50;99.90;;;;;;5048431;28;20028;-77
2021/10/31 08:01:11;;;;;;;24.83;14.00;;;9.40;99.90;;;;;;5048791;28;20494;-78
2021/10/31 08:03:37;;;;;;;25.40;15.32;;;9.50;99.90;;;;;;5048206;28;20426;-78
2021/10/31 08:06:03;;;;;;;22.08;14.45;;;9.40;99.90;;;;;;5048196;28;20090;-78
2021/10/31 08:08:29;;;;;;;25.90;15.77;;;9.40;99.90;;;;;;5048019;28;20024;-78
2021/10/31 08:10:55;;;;;;;26.65;16.10;;;9.50;99.90;;;;;;5047645;28;20114;-78
2021/10/31 08:13:25;;;;;;;27.40;14.73;;;9.70;99.90;;;;;;5047881;28;20047;-78
2021/10/31 08:15:52;;;;;;;26.70;16.60;;;9.70;99.90;;;;;;5048270;28;20051;-77
2021/10/31 08:18:18;;;;;;;29.88;17.52;;;9.70;99.90;;;;;;5048358;28;20051;-79
2021/10/31 08:20:44;;;;;;;27.77;17.45;;;9.60;99.90;;;;;;5048568;28;20048;-79
2021/10/31 08:23:11;;;;;;;23.73;15.13;;;9.60;99.90;;;;;;5048389;28;20068;-78
2021/10/31 08:25:37;;;;;;;21.30;13.73;;;9.60;99.90;;;;;;5047582;28;20578;-78
2021/10/31 08:28:05;;;;;;;24.67;15.43;;;9.60;99.90;;;;;;5045992;28;20064;-78
2021/10/31 08:30:33;;;;;;;24.05;15.15;;;9.60;99.90;;;;;;5045937;28;20037;-78
2021/10/31 08:35:44;;;;;;;25.65;15.45;;;9.70;99.90;;;;;;5045610;28;20040;-78
2021/10/31 08:38:11;;;;;;;24.85;14.55;;;9.80;99.90;;;;;;5045690;28;20030;-77
2021/10/31 08:40:38;;;;;;;26.83;17.17;;;9.90;99.90;;;;;;5048159;28;20095;-78
2021/10/31 08:43:04;;;;;;;23.83;16.05;;;9.90;99.90;;;;;;5047754;28;20087;-78
2021/10/31 08:45:30;;;;;;;24.95;14.80;;;9.90;99.90;;;;;;5050821;28;20132;-77
2021/10/31 08:47:56;;;;;;;25.33;15.65;;;9.90;99.90;;;;;;5051651;28;20104;-78
2021/10/31 08:50:23;;;;;;;25.48;15.43;;;9.80;99.90;;;;;;5052124;28;20033;-78
2021/10/31 08:52:49;;;;;;;25.10;16.42;;;9.90;99.90;;;;;;5052006;28;20457;-78
2021/10/31 08:55:14;;;;;;;23.42;15.75;;;9.90;99.90;;;;;;5051963;28;20086;-79
2021/10/31 08:57:40;;;;;;;24.90;15.90;;;10.00;99.90;;;;;;5052361;28;20082;-78
2021/10/31 09:00:07;;;;;;;24.90;15.82;;;10.00;99.90;;;;;;5052017;28;20025;-77
2021/10/31 09:02:37;;;;;;;25.52;15.45;;;10.00;99.90;;;;;;5051946;28;20029;-78
2021/10/31 09:05:07;;;;;;;25.00;16.50;;;10.10;99.90;;;;;;5051701;28;20045;-77
2021/10/31 09:07:33;;;;;;;24.98;15.57;;;10.10;99.90;;;;;;5051996;28;20060;-78
2021/10/31 09:10:00;;;;;;;52.40;16.98;;;10.10;99.90;;;;;;5051317;28;20041;-78
2021/10/31 09:12:26;;;;;;;46.13;15.38;;;10.00;99.90;;;;;;5051567;28;20025;-78
2021/10/31 09:14:53;;;;;;;25.75;15.77;;;9.90;99.90;;;;;;5051440;28;20029;-78
2021/10/31 09:17:19;;;;;;;27.83;15.40;;;9.90;99.90;;;;;;5051582;28;20376;-77
2021/10/31 09:19:45;;;;;;;21.63;14.38;;;9.90;99.90;;;;;;5051644;28;20028;-78
2021/10/31 09:22:11;;;;;;;23.58;14.20;;;9.80;99.90;;;;;;5051210;28;20025;-78
2021/10/31 09:24:37;;;;;;;26.55;15.38;;;9.80;99.90;;;;;;5049897;28;20032;-78
2021/10/31 09:27:03;;;;;;;28.13;17.98;;;9.80;99.90;;;;;;5047121;28;20037;-78
2021/10/31 09:29:30;;;;;;;22.15;15.32;;;9.80;99.90;;;;;;5048089;28;20104;-78
2021/10/31 09:31:56;;;;;;;26.67;16.38;;;9.90;99.90;;;;;;5048957;28;20125;-78
2021/10/31 09:34:23;;;;;;;21.58;13.20;;;10.00;99.90;;;;;;5049183;28;20033;-78
2021/10/31 09:36:48;;;;;;;22.80;14.85;;;10.10;99.90;;;;;;5048772;28;20545;-78
2021/10/31 09:39:15;;;;;;;25.60;15.48;;;10.10;99.90;;;;;;5048743;28;20054;-78
2021/10/31 09:41:41;;;;;;;20.63;13.23;;;10.20;99.90;;;;;;5046798;28;20021;-80
2021/10/31 09:46:37;;;;;;;23.00;14.07;;;10.40;99.90;;;;;;5048077;28;20036;-78
2021/10/31 09:49:04;;;;;;;24.15;14.45;;;10.40;99.90;;;;;;5047937;28;20111;-77
2021/10/31 09:51:30;;;;;;;24.40;15.10;;;10.50;99.90;;;;;;5047765;28;20050;-82
2021/10/31 09:53:59;;;;;;;23.50;15.73;;;10.50;99.90;;;;;;5047613;28;20108;-78
2021/10/31 09:56:26;;;;;;;26.98;15.52;;;10.60;99.90;;;;;;5047926;28;20032;-78
2021/10/31 09:58:53;;;;;;;24.75;14.95;;;10.70;99.90;;;;;;5047907;28;20116;-78
2021/10/31 10:04:37;;;;;;;20.88;13.75;;;10.70;99.90;;;;;;5047554;28;20036;-77
2021/10/31 10:07:05;;;;;;;23.17;13.52;;;10.90;99.90;;;;;;5047293;28;20033;-78
2021/10/31 10:09:32;;;;;;;21.35;13.65;;;10.80;99.90;;;;;;5047795;28;20029;-78
2021/10/31 10:12:13;;;;;;;23.73;15.10;;;10.80;99.90;;;;;;5046848;28;20049;-79
2021/10/31 10:14:39;;;;;;;19.88;13.57;;;10.90;99.90;;;;;;5047410;28;20033;-78
2021/10/31 10:17:10;;;;;;;20.23;12.63;;;10.80;99.90;;;;;;5047627;28;20036;-77
2021/10/31 10:19:48;;;;;;;19.58;13.15;;;10.90;99.90;;;;;;5047923;28;20906;-78
2021/10/31 10:22:17;;;;;;;18.05;11.88;;;11.00;99.90;;;;;;5047542;28;20363;-78
2021/10/31 10:24:48;;;;;;;21.67;12.38;;;11.00;99.90;;;;;;5047319;28;20028;-78
2021/10/31 10:27:14;;;;;;;20.67;12.90;;;11.10;99.90;;;;;;5047333;28;20021;-78
2021/10/31 10:29:42;;;;;;;24.05;14.88;;;11.20;99.90;;;;;;5046979;28;20533;-78
2021/10/31 10:32:14;;;;;;;22.85;15.30;;;11.20;99.90;;;;;;5047189;28;20132;-78
2021/10/31 10:37:14;;;;;;;22.75;16.35;;;11.30;99.90;;;;;;5047593;28;20399;-78
2021/10/31 10:39:41;;;;;;;18.48;13.75;;;11.30;99.90;;;;;;5048369;28;20021;-78
2021/10/31 10:42:08;;;;;;;25.90;18.95;;;11.40;99.90;;;;;;5047925;28;20463;-79
2021/10/31 10:44:38;;;;;;;22.15;15.73;;;11.40;99.90;;;;;;5047779;28;20056;-78
2021/10/31 10:47:08;;;;;;;20.02;12.52;;;11.50;99.70;;;;;;5049188;28;20090;-79
2021/10/31 10:49:39;;;;;;;20.95;13.10;;;11.40;98.60;;;;;;5049408;28;20033;-79
2021/10/31 10:52:09;;;;;;;19.65;13.35;;;11.40;98.90;;;;;;5050847;28;20044;-80
2021/10/31 10:54:36;;;;;;;22.50;12.63;;;11.50;98.80;;;;;;5047112;28;20053;-79
2021/10/31 10:57:07;;;;;;;21.13;11.80;;;11.50;98.50;;;;;;5045671;28;20043;-79
2021/10/31 10:59:36;;;;;;;22.23;12.98;;;11.60;98.20;;;;;;5045813;28;20033;-78
2021/10/31 11:02:17;;;;;;;19.27;13.30;;;11.70;98.80;;;;;;5048531;28;20044;-78
2021/10/31 11:04:45;;;;;;;19.00;11.00;;;11.90;99.30;;;;;;5047409;28;20479;-78
2021/10/31 11:07:13;;;;;;;18.08;12.55;;;11.90;98.50;;;;;;5046825;28;20040;-77
2021/10/31 11:09:45;;;;;;;20.42;14.95;;;11.80;98.30;;;;;;5046700;28;20040;-78
2021/10/31 11:12:32;;;;;;;27.02;13.77;;;12.00;98.30;;;;;;5047255;28;20051;-78
2021/10/31 11:15:08;;;;;;;77.10;40.35;;;12.00;98.30;;;;;;5046909;28;20021;-79
2021/10/31 11:17:38;;;;;;;177.30;142.85;;;12.10;98.40;;;;;;5046564;28;20389;-79
2021/10/31 11:20:08;;;;;;;38.50;32.55;;;12.20;98.10;;;;;;5046636;28;20028;-78
2021/10/31 11:22:34;;;;;;;19.15;13.00;;;12.20;98.00;;;;;;5046898;28;21012;-81
2021/10/31 11:25:01;;;;;;;17.15;11.77;;;12.10;97.90;;;;;;5046591;28;20108;-78
2021/10/31 11:27:29;;;;;;;20.13;12.00;;;12.10;97.70;;;;;;5046778;28;20082;-78
2021/10/31 11:29:57;;;;;;;23.70;11.98;;;12.20;98.30;;;;;;5046470;28;20192;-79
2021/10/31 11:32:24;;;;;;;21.77;12.98;;;12.30;98.70;;;;;;5045097;28;20032;-78
2021/10/31 11:34:53;;;;;;;21.35;13.43;;;12.40;98.90;;;;;;5046122;28;20094;-78
2021/10/31 11:37:22;;;;;;;21.75;13.20;;;12.50;98.60;;;;;;5046132;28;20059;-79
2021/10/31 11:39:53;;;;;;;27.13;13.68;;;12.40;98.60;;;;;;5046610;28;20207;-79
2021/10/31 11:42:20;;;;;;;24.70;16.73;;;12.40;99.00;;;;;;5046443;28;20036;-81
2021/10/31 11:45:04;;;;;;;40.03;28.55;;;12.40;98.90;;;;;;5046020;28;20083;-78
2021/10/31 11:47:30;;;;;;;36.53;23.42;;;12.40;99.00;;;;;;5046419;28;20039;-82
2021/10/31 11:50:05;;;;;;;20.42;13.57;;;12.40;99.10;;;;;;5046141;28;20017;-78
2021/10/31 11:52:51;;;;;;;23.35;13.18;;;12.40;99.30;;;;;;5028391;28;20029;-78
2021/10/31 11:55:28;;;;;;;20.73;13.45;;;12.40;98.70;;;;;;5047022;28;20130;-81
2021/10/31 11:58:06;;;;;;;18.83;13.05;;;12.60;98.70;;;;;;5046768;28;20025;-79
2021/10/31 12:00:32;;;;;;;18.42;12.20;;;12.90;98.30;;;;;;5046451;28;20151;-79
2021/10/31 12:03:03;;;;;;;17.85;11.45;;;13.50;98.20;;;;;;5046529;28;20119;-78
2021/10/31 12:05:39;;;;;;;20.48;12.63;;;13.80;97.10;;;;;;5046492;28;20025;-77
2021/10/31 12:08:09;;;;;;;18.50;11.90;;;14.10;97.00;;;;;;5046071;28;20021;-78
2021/10/31 12:10:36;;;;;;;19.38;11.45;;;14.40;96.30;;;;;;5045720;28;20041;-78
2021/10/31 12:13:16;;;;;;;19.65;11.38;;;14.40;95.50;;;;;;5046012;28;20171;-80
2021/10/31 12:16:04;;;;;;;17.13;11.13;;;14.00;95.90;;;;;;5045856;28;20024;-78
2021/10/31 12:18:56;;;;;;;16.58;10.77;;;14.00;95.60;;;;;;5027845;28;20395;-77
2021/10/31 12:21:28;;;;;;;17.90;11.02;;;13.90;95.90;;;;;;5050200;28;20746;-78
2021/10/31 12:24:02;;;;;;;21.10;13.25;;;13.90;95.80;;;;;;5049865;28;20043;-77
2021/10/31 12:26:33;;;;;;;17.55;12.85;;;14.00;95.90;;;;;;5049912;28;20463;-79
2021/10/31 12:29:11;;;;;;;22.48;13.65;;;14.00;95.70;;;;;;5049807;28;20021;-78
2021/10/31 12:31:59;;;;;;;19.98;12.57;;;13.90;95.90;;;;;;5050216;28;20083;-81
2021/10/31 12:34:38;;;;;;;19.02;12.75;;;13.80;96.00;;;;;;5031946;28;20120;-78
2021/10/31 12:37:24;;;;;;;19.40;11.25;;;13.80;96.10;;;;;;5050291;28;20467;-77
2021/10/31 12:39:51;;;;;;;18.38;11.98;;;13.90;96.70;;;;;;5032036;28;20037;-78
2021/10/31 12:42:20;;;;;;;23.95;13.23;;;13.90;96.30;;;;;;5050283;28;20021;-78
2021/10/31 12:44:59;;;;;;;19.90;11.52;;;13.80;96.50;;;;;;5049712;28;20052;-80
2021/10/31 12:47:36;;;;;;;18.42;11.60;;;13.70;96.30;;;;;;5049742;28;20163;-78
2021/10/31 12:50:14;;;;;;;19.35;12.63;;;13.70;96.40;;;;;;5049091;28;20036;-80
2021/10/31 12:52:44;;;;;;;21.65;12.25;;;13.70;96.40;;;;;;5049235;28;20013;-78
2021/10/31 12:55:14;;;;;;;21.35;12.88;;;13.80;96.50;;;;;;5049355;28;20653;-78